Time;durP1;ratioP1;P1;durP2;ratioP2;P2;SDS_P1;SDS_P2;PMS_P1;PMS_P2;Temp;Humidity;BMP_temperature;BMP_pressure;BME280_temperature;BME280_humidity;BME280_pressure;Samples;Min_cycle;Max_cycle;Signal;HPM_P1;HPM_P2
2022/03/30 00:01:48;;;;;;;35.63;18.03;;;;;;;13.94;37.60;94635.25;4934200;29;20455;-61
2022/03/30 00:04:16;;;;;;;34.73;18.87;;;;;;;13.79;37.72;94624.88;4933276;29;20483;-57
2022/03/30 00:06:43;;;;;;;35.30;17.73;;;;;;;13.45;37.53;94619.72;4933927;29;20966;-58
2022/03/30 00:09:10;;;;;;;28.23;16.57;;;;;;;13.82;37.74;94629.59;4932928;29;20449;-57
2022/03/30 00:11:37;;;;;;;29.03;17.37;;;;;;;13.02;39.42;94629.34;4933504;29;20452;-60
2022/03/30 00:14:04;;;;;;;36.10;17.30;;;;;;;13.30;39.04;94638.31;4933180;29;20459;-56
2022/03/30 00:16:33;;;;;;;28.37;16.70;;;;;;;13.30;38.83;94640.16;4933918;29;20456;-61
2022/03/30 00:19:02;;;;;;;25.87;15.73;;;;;;;12.83;39.51;94631.06;4934058;29;20436;-59
2022/03/30 00:21:29;;;;;;;33.90;17.10;;;;;;;12.04;41.78;94635.78;4933040;29;20456;-62
2022/03/30 00:23:56;;;;;;;31.13;16.40;;;;;;;13.10;39.53;94635.88;4933346;29;20448;-55
2022/03/30 00:26:23;;;;;;;35.70;16.17;;;;;;;13.43;38.69;94626.34;4932418;29;20832;-61
2022/03/30 00:28:50;;;;;;;33.73;17.40;;;;;;;12.82;39.60;94637.38;4916099;29;20456;-61
2022/03/30 00:31:18;;;;;;;30.03;17.00;;;;;;;12.55;39.89;94641.53;4933210;29;20484;-54
2022/03/30 00:33:46;;;;;;;30.23;16.40;;;;;;;12.94;39.50;94627.28;4933293;29;20456;-54
2022/03/30 00:36:13;;;;;;;25.27;15.67;;;;;;;12.92;39.66;94624.13;4932896;29;20926;-61
2022/03/30 00:38:40;;;;;;;31.67;15.70;;;;;;;12.81;40.20;94624.53;4932768;29;20543;-63
2022/03/30 00:41:07;;;;;;;27.80;16.47;;;;;;;12.96;39.50;94614.66;4932927;29;20539;-64
2022/03/30 00:43:34;;;;;;;29.20;16.83;;;;;;;13.21;39.20;94618.91;4933048;29;20964;-62
2022/03/30 00:46:02;;;;;;;31.60;16.77;;;;;;;13.31;39.15;94624.09;4932998;29;20456;-62
2022/03/30 00:48:29;;;;;;;23.50;16.30;;;;;;;13.17;39.04;94623.94;4915613;29;20826;-56
2022/03/30 00:50:56;;;;;;;29.27;15.80;;;;;;;13.34;38.61;94622.75;4931553;29;20563;-56
2022/03/30 00:53:23;;;;;;;25.73;15.67;;;;;;;12.57;40.49;94632.28;4933323;29;20499;-55
2022/03/30 00:55:52;;;;;;;25.57;16.23;;;;;;;13.18;39.06;94617.63;4933065;29;20508;-53
2022/03/30 00:58:21;;;;;;;28.70;16.93;;;;;;;13.38;38.83;94621.13;4933092;29;20939;-63
2022/03/30 01:00:49;;;;;;;30.37;15.67;;;;;;;13.54;38.63;94617.28;4932717;29;20811;-60
2022/03/30 01:03:16;;;;;;;26.77;16.80;;;;;;;13.49;38.61;94614.69;4932786;29;20834;-60
2022/03/30 01:05:43;;;;;;;23.50;16.90;;;;;;;13.41;38.88;94616.06;4931585;29;20523;-53
2022/03/30 01:08:10;;;;;;;30.27;16.03;;;;;;;13.43;38.84;94600.03;4932846;29;20451;-59
2022/03/30 01:10:38;;;;;;;24.30;16.27;;;;;;;13.53;38.77;94605.16;4932211;29;20441;-60
2022/03/30 01:13:07;;;;;;;27.67;16.70;;;;;;;13.17;39.18;94605.53;4932413;29;20503;-60
2022/03/30 01:15:35;;;;;;;30.20;17.23;;;;;;;12.83;40.14;94607.38;4931882;29;20543;-57
2022/03/30 01:18:02;;;;;;;26.10;15.23;;;;;;;13.14;39.08;94592.94;4932684;29;20491;-60
2022/03/30 01:20:29;;;;;;;30.33;15.67;;;;;;;13.37;38.90;94591.41;4931605;29;20460;-55
2022/03/30 01:23:01;;;;;;;28.27;16.40;;;;;;;13.46;38.56;94588.94;4932532;29;20448;-62
2022/03/30 01:25:28;;;;;;;33.60;16.63;;;;;;;13.51;38.60;94602.81;4931595;29;20882;-56
2022/03/30 01:27:55;;;;;;;29.80;16.00;;;;;;;13.13;38.69;94596.66;4932570;29;20507;-59
2022/03/30 01:33:07;;;;;;;26.97;15.43;;;;;;;13.15;38.97;94594.53;4932548;29;20448;-60
2022/03/30 01:35:35;;;;;;;28.43;16.43;;;;;;;12.66;39.88;94606.22;4931684;29;20818;-61
2022/03/30 01:38:02;;;;;;;29.87;16.33;;;;;;;12.52;40.31;94600.03;4931295;29;21122;-59
2022/03/30 01:40:32;;;;;;;28.13;16.27;;;;;;;12.92;39.63;94603.09;4932294;29;20451;-56
2022/03/30 01:42:58;;;;;;;27.40;15.83;;;;;;;12.85;39.95;94607.91;4932567;29;20463;-62
2022/03/30 01:45:26;;;;;;;24.30;16.10;;;;;;;12.82;39.53;94603.19;4931514;29;20455;-57
2022/03/30 01:47:55;;;;;;;27.13;16.20;;;;;;;12.89;39.60;94606.28;4932134;29;20894;-58
2022/03/30 01:50:22;;;;;;;32.90;16.17;;;;;;;12.80;40.05;94618.47;4931211;29;20558;-57
2022/03/30 01:52:49;;;;;;;26.73;16.03;;;;;;;12.79;39.94;94622.13;4932080;29;20508;-58
2022/03/30 01:55:17;;;;;;;25.73;15.83;;;;;;;12.69;40.34;94618.81;4931288;29;20490;-58
2022/03/30 01:57:46;;;;;;;31.90;17.63;;;;;;;12.68;40.33;94615.38;4931995;29;20455;-58
2022/03/30 02:00:15;;;;;;;27.90;15.57;;;;;;;12.88;39.92;94609.97;4931316;29;20448;-60
2022/03/30 02:02:42;;;;;;;31.23;16.13;;;;;;;12.96;39.37;94611.22;4931967;29;20837;-60
2022/03/30 02:05:10;;;;;;;33.40;17.73;;;;;;;12.82;40.13;94618.97;4930940;29;20827;-58
2022/03/30 02:07:40;;;;;;;36.73;18.10;;;;;;;12.64;40.80;94618.84;4931609;29;20456;-57
2022/03/30 02:10:08;;;;;;;33.93;17.93;;;;;;;12.64;40.82;94629.38;4931068;29;20519;-62
2022/03/30 02:12:36;;;;;;;36.13;18.20;;;;;;;12.66;40.47;94620.16;4931984;29;20483;-58
2022/03/30 02:15:05;;;;;;;30.53;18.93;;;;;;;12.05;41.41;94621.59;4930981;29;20476;-57
2022/03/30 02:17:32;;;;;;;30.93;17.60;;;;;;;12.39;41.11;94627.69;4931780;29;20484;-58
2022/03/30 02:19:59;;;;;;;35.90;18.10;;;;;;;12.57;40.80;94619.16;4931200;29;20456;-61
2022/03/30 02:22:26;;;;;;;31.27;15.93;;;;;;;12.14;42.33;94631.25;4931469;29;20831;-62
2022/03/30 02:24:54;;;;;;;31.77;17.17;;;;;;;12.28;41.67;94639.31;4930529;29;20455;-60
2022/03/30 02:27:21;;;;;;;36.30;18.73;;;;;;;12.39;41.59;94642.69;4931910;29;20511;-58
2022/03/30 02:29:51;;;;;;;33.37;18.13;;;;;;;12.59;41.02;94643.31;4930967;29;20472;-60
2022/03/30 02:32:21;;;;;;;27.83;17.07;;;;;;;12.78;40.90;94641.63;4931546;29;20455;-60
2022/03/30 02:34:49;;;;;;;34.37;16.70;;;;;;;12.82;40.48;94626.06;4931173;29;20824;-58
2022/03/30 02:37:16;;;;;;;29.33;16.63;;;;;;;13.27;40.08;94638.06;4931401;29;20488;-64
2022/03/30 02:39:43;;;;;;;29.17;17.07;;;;;;;13.04;40.05;94623.81;4931225;29;20952;-59
2022/03/30 02:42:10;;;;;;;33.53;23.13;;;;;;;12.52;41.53;94637.59;4931044;29;20443;-55
2022/03/30 02:44:38;;;;;;;36.70;18.53;;;;;;;12.51;41.86;94640.50;4930778;29;21228;-54
2022/03/30 02:47:05;;;;;;;37.80;19.27;;;;;;;12.12;42.25;94638.63;4931219;29;20448;-56
2022/03/30 02:49:33;;;;;;;31.47;18.23;;;;;;;12.10;42.36;94637.31;4934607;29;20467;-61
2022/03/30 02:52:00;;;;;;;37.77;18.33;;;;;;;12.45;41.40;94642.38;4934695;29;20460;-61
2022/03/30 02:54:26;;;;;;;34.23;17.30;;;;;;;12.47;41.71;94637.63;4934763;29;20519;-61
2022/03/30 02:56:53;;;;;;;29.70;18.00;;;;;;;12.75;40.86;94638.75;4935053;29;20507;-61
2022/03/30 02:59:20;;;;;;;29.60;18.07;;;;;;;12.76;40.59;94633.22;4934354;29;20500;-63
2022/03/30 03:01:48;;;;;;;37.30;19.63;;;;;;;12.72;41.07;94631.41;4934933;29;20444;-59
2022/03/30 03:04:15;;;;;;;26.63;16.73;;;;;;;12.58;41.20;94636.50;4934334;29;20798;-56
2022/03/30 03:06:42;;;;;;;35.17;17.57;;;;;;;12.04;42.68;94627.91;4934404;29;21026;-58
2022/03/30 03:09:09;;;;;;;32.17;18.00;;;;;;;12.31;41.96;94628.28;4933819;29;20517;-60
2022/03/30 03:11:36;;;;;;;30.20;17.30;;;;;;;12.32;42.05;94635.09;4934656;29;20975;-61
2022/03/30 03:14:05;;;;;;;31.77;16.27;;;;;;;12.36;41.70;94630.06;4933788;29;20511;-57
2022/03/30 03:16:33;;;;;;;27.20;17.57;;;;;;;12.52;41.73;94627.06;4934557;29;20480;-57
2022/03/30 03:19:01;;;;;;;30.13;17.23;;;;;;;12.56;41.26;94625.47;4934703;29;20451;-60
2022/03/30 03:21:28;;;;;;;34.63;16.57;;;;;;;12.60;41.30;94634.38;4934646;29;20479;-56
2022/03/30 03:23:55;;;;;;;35.83;17.77;;;;;;;12.82;40.75;94620.81;4934948;29;20451;-58
2022/03/30 03:26:22;;;;;;;39.97;18.60;;;;;;;12.40;42.03;94621.38;4934187;29;20495;-57
2022/03/30 03:28:50;;;;;;;32.27;18.00;;;;;;;12.41;41.76;94620.31;4933983;29;20524;-61
2022/03/30 03:31:35;;;;;;;34.40;17.70;;;;;;;11.37;43.72;94619.72;4933786;29;20459;-56
2022/03/30 03:34:02;;;;;;;30.73;18.60;;;;;;;12.13;42.74;94623.66;4934015;29;20486;-59
2022/03/30 03:36:29;;;;;;;34.50;18.13;;;;;;;11.72;43.39;94628.28;4932704;29;20502;-60
2022/03/30 03:38:56;;;;;;;33.53;17.53;;;;;;;12.04;42.28;94627.91;4933751;29;20929;-63
2022/03/30 03:41:23;;;;;;;31.73;17.67;;;;;;;12.20;41.79;94624.13;4934056;29;20481;-58
2022/03/30 03:43:50;;;;;;;27.97;17.90;;;;;;;12.33;41.78;94628.78;4932838;29;20437;-55
2022/03/30 03:46:17;;;;;;;38.27;18.87;;;;;;;11.65;43.58;94627.00;4933257;29;20970;-58
2022/03/30 03:48:44;;;;;;;36.43;18.53;;;;;;;12.07;42.22;94624.72;4934405;29;21026;-58
2022/03/30 03:51:11;;;;;;;30.93;18.60;;;;;;;11.21;44.34;94625.00;4933326;29;20452;-61
2022/03/30 03:53:38;;;;;;;36.83;18.23;;;;;;;12.02;42.47;94619.50;4934212;29;20453;-59
2022/03/30 03:56:05;;;;;;;35.90;17.73;;;;;;;11.04;44.16;94627.13;4933363;29;20480;-59
2022/03/30 03:58:32;;;;;;;34.90;18.57;;;;;;;11.73;43.26;94618.59;4934033;29;20452;-63
2022/03/30 04:00:59;;;;;;;35.90;18.57;;;;;;;11.81;43.27;94620.63;4931378;29;20461;-59
2022/03/30 04:03:26;;;;;;;38.30;19.40;;;;;;;11.29;43.83;94617.63;4933865;29;20456;-58
2022/03/30 04:05:53;;;;;;;36.33;18.63;;;;;;;11.92;42.41;94620.34;4933698;29;20428;-59
2022/03/30 04:08:20;;;;;;;33.53;17.93;;;;;;;12.21;41.82;94620.44;4933879;29;20515;-56
2022/03/30 04:10:48;;;;;;;33.47;17.80;;;;;;;11.92;42.94;94616.91;4933021;29;20511;-57
2022/03/30 04:13:14;;;;;;;42.17;19.00;;;;;;;12.17;41.82;94620.19;4933496;29;20485;-63
2022/03/30 04:15:41;;;;;;;31.23;17.27;;;;;;;12.22;42.27;94627.28;4933096;29;20472;-64
2022/03/30 04:18:08;;;;;;;40.87;18.53;;;;;;;12.12;42.52;94622.06;4936627;29;20891;-60
2022/03/30 04:20:36;;;;;;;41.97;18.20;;;;;;;12.05;42.42;94626.84;4936888;29;20875;-56
2022/03/30 04:23:03;;;;;;;39.07;19.57;;;;;;;11.98;42.73;94636.84;4933448;29;20453;-60
2022/03/30 04:25:30;;;;;;;40.80;19.17;;;;;;;12.29;41.95;94627.75;4932496;29;20448;-61
2022/03/30 04:27:57;;;;;;;39.17;19.00;;;;;;;12.16;42.05;94634.41;4933391;29;20786;-61
2022/03/30 04:30:24;;;;;;;36.87;20.47;;;;;;;12.15;41.98;94618.91;4932203;29;20467;-59
2022/03/30 04:32:51;;;;;;;42.30;21.80;;;;;;;12.36;41.70;94622.19;4933178;29;21118;-62
2022/03/30 04:35:22;;;;;;;43.33;23.30;;;;;;;12.46;41.54;94625.56;4932812;29;20445;-60
2022/03/30 04:37:49;;;;;;;38.07;21.57;;;;;;;12.57;40.92;94634.91;4933066;29;20487;-63
2022/03/30 04:40:16;;;;;;;48.23;21.87;;;;;;;12.37;41.77;94629.78;4932907;29;20464;-60
2022/03/30 04:42:43;;;;;;;47.10;21.03;;;;;;;12.14;42.20;94625.22;4933308;29;20436;-58
2022/03/30 04:45:10;;;;;;;43.37;21.00;;;;;;;11.90;41.71;94634.78;4932594;29;20836;-55
2022/03/30 04:47:37;;;;;;;63.23;23.17;;;;;;;12.24;42.20;94622.53;4933002;29;20436;-63
2022/03/30 04:50:05;;;;;;;62.13;22.67;;;;;;;11.48;43.40;94626.53;4932069;29;20535;-59
2022/03/30 04:52:32;;;;;;;60.13;21.43;;;;;;;11.93;42.80;94618.50;4933058;29;20452;-59
2022/03/30 04:54:59;;;;;;;65.07;22.77;;;;;;;11.80;43.13;94621.72;4932236;29;20457;-56
2022/03/30 04:57:26;;;;;;;66.43;23.67;;;;;;;12.26;43.86;94615.19;4932735;29;20476;-60
2022/03/30 04:59:53;;;;;;;62.47;24.00;;;;;;;12.15;45.14;94618.91;4932052;29;20428;-62
2022/03/30 05:02:20;;;;;;;79.93;25.80;;;;;;;12.46;44.19;94625.56;4933149;29;20996;-61
2022/03/30 05:04:47;;;;;;;111.30;60.50;;;;;;;12.39;43.11;94640.81;4932406;29;20468;-64
2022/03/30 05:07:14;;;;;;;69.13;32.40;;;;;;;12.46;42.87;94632.66;4932815;29;20845;-60
2022/03/30 05:09:41;;;;;;;73.63;33.47;;;;;;;12.58;42.82;94625.19;4932591;29;20448;-59
2022/03/30 05:12:09;;;;;;;119.40;55.27;;;;;;;12.28;42.86;94631.44;4932679;29;20436;-57
2022/03/30 05:14:36;;;;;;;127.03;58.40;;;;;;;12.09;42.83;94644.41;4932229;29;20457;-60
2022/03/30 05:17:03;;;;;;;100.23;47.73;;;;;;;12.17;43.15;94635.19;4932390;29;20480;-60
2022/03/30 05:19:30;;;;;;;117.30;48.97;;;;;;;12.16;42.50;94639.66;4932229;29;20815;-59
2022/03/30 05:21:57;;;;;;;126.67;46.37;;;;;;;12.31;42.23;94640.63;4932199;29;22247;-59
2022/03/30 05:24:24;;;;;;;118.10;54.83;;;;;;;12.27;42.37;94640.38;4931793;29;20436;-64
2022/03/30 05:26:53;;;;;;;150.13;79.10;;;;;;;12.34;41.68;94646.13;4932571;29;20478;-66
2022/03/30 05:29:20;;;;;;;130.03;63.20;;;;;;;12.24;41.96;94633.06;4931763;29;20535;-63
2022/03/30 05:31:47;;;;;;;142.10;65.30;;;;;;;12.41;41.19;94640.56;4932548;29;20454;-62
2022/03/30 05:34:33;;;;;;;146.17;71.70;;;;;;;12.17;41.42;94637.81;4930662;29;21003;-57
2022/03/30 05:37:00;;;;;;;164.70;79.33;;;;;;;11.95;41.64;94640.03;4931301;29;20933;-63
2022/03/30 05:39:27;;;;;;;155.77;75.23;;;;;;;11.88;41.79;94615.88;4931167;29;20527;-60
2022/03/30 05:41:54;;;;;;;130.77;70.53;;;;;;;11.90;42.19;94629.53;4930412;29;20448;-58
2022/03/30 05:44:21;;;;;;;133.03;69.93;;;;;;;12.32;41.10;94632.47;4931508;29;20527;-60
2022/03/30 05:46:48;;;;;;;142.00;68.00;;;;;;;12.36;40.82;94633.50;4931997;29;20966;-60
2022/03/30 05:49:16;;;;;;;117.00;62.97;;;;;;;12.28;41.35;94631.44;4931695;29;20523;-60
2022/03/30 05:51:43;;;;;;;119.90;57.70;;;;;;;12.47;40.83;94632.38;4932225;29;20453;-59
2022/03/30 05:54:10;;;;;;;100.03;53.87;;;;;;;12.74;40.40;94630.06;4931534;29;20444;-58
2022/03/30 05:59:22;;;;;;;80.93;44.33;;;;;;;12.85;40.73;94631.56;4931749;29;20448;-62
2022/03/30 06:01:50;;;;;;;89.57;45.27;;;;;;;12.81;41.30;94630.53;4931420;29;20836;-60
2022/03/30 06:04:17;;;;;;;74.40;43.40;;;;;;;13.02;41.29;94639.88;4931526;29;20515;-62
2022/03/30 06:06:45;;;;;;;93.03;46.40;;;;;;;13.04;41.43;94637.75;4931865;29;20455;-52
2022/03/30 06:09:12;;;;;;;68.70;41.27;;;;;;;13.38;40.81;94639.53;4931557;29;20448;-64
2022/03/30 06:11:39;;;;;;;74.43;42.13;;;;;;;13.34;40.43;94643.81;4931936;29;20432;-58
2022/03/30 06:14:06;;;;;;;71.03;41.27;;;;;;;13.53;40.79;94631.50;4931401;29;20445;-63
2022/03/30 06:16:33;;;;;;;74.97;40.57;;;;;;;13.57;40.16;94627.25;4931969;29;20516;-64
2022/03/30 06:19:00;;;;;;;74.73;38.13;;;;;;;13.78;40.32;94631.19;4931646;29;20453;-63
2022/03/30 06:21:29;;;;;;;58.40;36.17;;;;;;;13.71;40.67;94633.41;4931445;29;20480;-63
2022/03/30 06:23:58;;;;;;;65.63;35.00;;;;;;;13.86;40.49;94630.59;4936374;29;20460;-57
2022/03/30 06:26:25;;;;;;;53.07;34.37;;;;;;;14.08;40.73;94634.28;4937342;29;20464;-57
2022/03/30 06:28:52;;;;;;;66.57;35.37;;;;;;;14.07;40.59;94631.91;4938029;29;20998;-59
2022/03/30 06:31:19;;;;;;;66.53;36.93;;;;;;;14.21;41.06;94625.66;4938030;29;20535;-61
2022/03/30 06:33:47;;;;;;;68.00;36.50;;;;;;;13.76;41.78;94630.69;4938311;29;20448;-63
2022/03/30 06:36:14;;;;;;;62.53;34.03;;;;;;;13.77;41.88;94637.56;4937612;29;20582;-61
2022/03/30 06:38:42;;;;;;;54.20;31.87;;;;;;;13.62;42.33;94645.59;4937961;29;20617;-62
2022/03/30 06:41:12;;;;;;;54.10;33.23;;;;;;;13.56;42.42;94641.44;4937968;29;20499;-62
2022/03/30 06:43:42;;;;;;;58.13;31.93;;;;;;;14.00;41.24;94649.91;4938154;29;20927;-61
2022/03/30 06:46:10;;;;;;;62.83;34.37;;;;;;;14.22;41.03;94650.16;4937265;29;20446;-58
2022/03/30 06:48:37;;;;;;;50.93;31.60;;;;;;;14.41;41.00;94637.81;4937966;29;20451;-59
2022/03/30 06:51:04;;;;;;;55.80;32.63;;;;;;;14.74;40.16;94647.38;4937198;29;20452;-59
2022/03/30 06:53:34;;;;;;;58.57;33.83;;;;;;;14.83;39.62;94650.91;4938100;29;20464;-58
2022/03/30 06:56:01;;;;;;;52.63;32.07;;;;;;;14.86;39.25;94644.28;4936723;29;20436;-61
2022/03/30 06:58:27;;;;;;;55.87;30.83;;;;;;;14.91;39.33;94652.09;4937757;29;20480;-64
2022/03/30 07:00:56;;;;;;;63.03;32.40;;;;;;;15.10;39.26;94645.72;4937240;29;20439;-59
2022/03/30 07:03:26;;;;;;;65.97;32.10;;;;;;;15.08;39.05;94652.38;4938233;29;20456;-62
2022/03/30 07:05:54;;;;;;;70.97;32.90;;;;;;;15.10;39.27;94656.28;4937632;29;20448;-62
2022/03/30 07:11:06;;;;;;;61.47;34.47;;;;;;;15.48;38.53;94646.44;4937708;29;20444;-65
2022/03/30 07:13:33;;;;;;;66.03;33.17;;;;;;;15.60;38.11;94638.03;4938084;29;20544;-64
2022/03/30 07:16:00;;;;;;;59.67;32.50;;;;;;;15.61;38.09;94644.88;4936899;29;20495;-62
2022/03/30 07:18:27;;;;;;;50.37;31.70;;;;;;;15.92;37.56;94645.88;4937636;29;20451;-61
2022/03/30 07:20:54;;;;;;;54.10;30.70;;;;;;;15.94;37.49;94635.78;4937326;29;20472;-58
2022/03/30 07:23:23;;;;;;;53.23;31.90;;;;;;;15.91;37.43;94634.50;4938227;29;20487;-60
2022/03/30 07:25:50;;;;;;;53.20;32.10;;;;;;;15.74;36.95;94597.34;4937991;29;20523;-61
2022/03/30 07:28:18;;;;;;;52.30;30.57;;;;;;;16.18;37.05;94633.72;4937683;29;20498;-61
2022/03/30 07:30:48;;;;;;;65.90;31.80;;;;;;;15.90;37.24;94634.81;4937484;29;20456;-63
2022/03/30 07:33:15;;;;;;;55.43;31.73;;;;;;;16.25;37.38;94631.44;4937143;29;20463;-62
2022/03/30 07:35:46;;;;;;;58.17;31.13;;;;;;;16.44;36.96;94626.78;4933388;29;20447;-62
2022/03/30 07:38:15;;;;;;;53.73;32.47;;;;;;;16.39;37.03;94591.75;4934145;29;20504;-61
2022/03/30 07:40:43;;;;;;;57.27;30.57;;;;;;;16.35;35.64;94623.28;4934132;29;20437;-65
2022/03/30 07:43:10;;;;;;;59.40;29.73;;;;;;;16.56;35.98;94635.03;4934400;29;20452;-63
2022/03/30 07:45:39;;;;;;;45.20;28.23;;;;;;;16.83;36.42;94634.94;4934004;29;20448;-58
2022/03/30 07:48:12;;;;;;;50.10;27.17;;;;;;;17.01;35.38;94638.47;4934439;29;20452;-64
2022/03/30 07:50:40;;;;;;;53.50;27.63;;;;;;;17.06;35.50;94638.38;4933957;29;20452;-65
2022/03/30 07:53:10;;;;;;;43.87;26.73;;;;;;;16.98;36.04;94631.94;4934062;29;20483;-64
2022/03/30 07:55:39;;;;;;;67.23;29.40;;;;;;;17.12;35.61;94622.06;4933645;29;20975;-63
2022/03/30 07:58:06;;;;;;;48.40;27.73;;;;;;;17.38;34.68;94627.50;4934006;29;20473;-62
2022/03/30 08:00:34;;;;;;;44.93;28.07;;;;;;;17.23;34.85;94618.09;4933319;29;20559;-61
2022/03/30 08:03:01;;;;;;;52.77;29.73;;;;;;;16.87;35.62;94635.91;4934174;29;20449;-61
2022/03/30 08:05:29;;;;;;;52.13;26.87;;;;;;;17.16;34.73;94623.03;4933747;29;20456;-60
2022/03/30 08:07:56;;;;;;;47.20;28.53;;;;;;;17.55;35.03;94619.69;4934221;29;20440;-66
2022/03/30 08:10:23;;;;;;;66.23;30.47;;;;;;;17.93;35.14;94617.34;4933283;29;20452;-61
2022/03/30 08:12:49;;;;;;;44.77;29.27;;;;;;;18.08;34.57;94622.22;4917236;29;20939;-63
2022/03/30 08:15:16;;;;;;;55.33;29.10;;;;;;;18.20;33.98;94619.75;4933501;29;20448;-63
2022/03/30 08:17:44;;;;;;;49.67;28.60;;;;;;;18.14;34.38;94613.00;4933684;29;20488;-59
2022/03/30 08:22:25;;;;;;;48.20;27.73;;;;;;;18.49;34.18;94595.31;4933146;29;20448;-60
2022/03/30 08:23:03;;;;;;;44.40;28.33;;;;;;;18.46;32.97;94595.94;4933979;29;20432;-62
2022/03/30 08:25:30;;;;;;;45.90;26.93;;;;;;;18.46;33.17;94596.72;4933293;29;20544;-62
2022/03/30 08:27:57;;;;;;;42.37;26.70;;;;;;;18.53;33.33;94597.03;4933598;29;20441;-64
2022/03/30 08:30:25;;;;;;;44.50;26.90;;;;;;;18.68;33.08;94588.63;4932808;29;20452;-60
2022/03/30 08:32:52;;;;;;;48.57;27.33;;;;;;;18.77;34.06;94596.56;4933483;29;20995;-63
2022/03/30 08:35:19;;;;;;;53.17;26.20;;;;;;;18.71;33.16;94574.72;4933127;29;20878;-62
2022/03/30 08:37:47;;;;;;;41.23;26.33;;;;;;;18.94;32.66;94586.69;4933021;29;21019;-62
2022/03/30 08:40:14;;;;;;;46.13;26.00;;;;;;;19.01;32.02;94575.63;4915345;29;20911;-63
2022/03/30 08:42:41;;;;;;;44.47;25.57;;;;;;;18.81;31.46;94570.97;4933622;29;20532;-64
2022/03/30 08:45:09;;;;;;;49.07;25.40;;;;;;;19.41;31.79;94569.00;4932806;29;20448;-62
2022/03/30 08:47:37;;;;;;;48.80;25.30;;;;;;;19.46;31.99;94576.00;4933001;29;20460;-60
2022/03/30 08:50:04;;;;;;;38.53;23.43;;;;;;;18.72;31.31;94578.91;4932794;29;20455;-61
2022/03/30 08:52:31;;;;;;;37.27;21.33;;;;;;;18.86;30.86;94568.94;4916356;29;20854;-63
2022/03/30 08:54:59;;;;;;;46.20;21.70;;;;;;;18.78;31.30;94561.75;4933002;29;20458;-64
2022/03/30 08:57:27;;;;;;;37.90;22.53;;;;;;;18.67;31.51;94557.06;4933285;29;20610;-64
2022/03/30 09:00:09;;;;;;;38.77;22.20;;;;;;;19.08;31.73;94546.69;4932935;29;20830;-65
2022/03/30 09:02:39;;;;;;;43.07;22.07;;;;;;;19.93;30.89;94537.63;4933270;29;20483;-68
2022/03/30 09:05:15;;;;;;;33.30;21.67;;;;;;;20.13;30.46;94535.00;4932402;29;20452;-64
2022/03/30 09:07:44;;;;;;;41.90;21.97;;;;;;;20.02;31.18;94530.34;4932774;29;20468;-60
2022/03/30 09:10:30;;;;;;;37.73;22.93;;;;;;;20.14;30.44;94533.88;4932580;29;20959;-60
2022/03/30 09:12:58;;;;;;;46.60;23.13;;;;;;;20.02;30.58;94533.03;4932715;29;21109;-59
2022/03/30 09:15:25;;;;;;;37.63;21.70;;;;;;;20.31;30.42;94530.34;4932368;29;20974;-58
2022/03/30 09:18:02;;;;;;;42.43;21.47;;;;;;;20.53;30.27;94532.69;4932199;29;20512;-57
2022/03/30 09:20:39;;;;;;;34.50;21.53;;;;;;;20.49;30.30;94502.50;4932335;29;20979;-57
2022/03/30 09:23:09;;;;;;;47.60;23.07;;;;;;;20.41;31.01;94516.66;4932880;29;20897;-63
2022/03/30 09:25:48;;;;;;;40.13;21.73;;;;;;;20.35;29.77;94504.66;4932392;29;20456;-58
2022/03/30 09:28:21;;;;;;;43.87;21.83;;;;;;;19.99;30.55;94509.75;4932435;29;20432;-63
2022/03/30 09:30:50;;;;;;;47.07;23.83;;;;;;;19.67;31.68;94497.13;4931942;29;20464;-64
2022/03/30 09:33:19;;;;;;;44.27;21.10;;;;;;;20.85;30.71;94499.97;4932563;29;20458;-64
2022/03/30 09:35:47;;;;;;;35.70;19.93;;;;;;;20.84;29.96;94494.97;4931781;29;20457;-59
2022/03/30 09:38:18;;;;;;;37.50;19.83;;;;;;;20.57;30.42;94488.34;4931614;29;21108;-56
2022/03/30 09:40:54;;;;;;;42.30;18.90;;;;;;;20.61;30.37;94507.88;4931877;29;20826;-59
2022/03/30 09:43:29;;;;;;;37.30;20.27;;;;;;;20.60;30.22;94487.66;4932029;29;20227;-60
2022/03/30 09:46:02;;;;;;;47.47;20.20;;;;;;;20.69;29.45;94468.97;4932092;29;20539;-60
2022/03/30 09:48:32;;;;;;;28.70;18.13;;;;;;;20.65;29.57;94457.41;4931955;29;20471;-62
2022/03/30 09:51:00;;;;;;;36.80;18.77;;;;;;;20.87;29.77;94444.50;4931656;29;20193;-63
2022/03/30 09:53:30;;;;;;;28.60;17.93;;;;;;;21.13;29.61;94453.00;4932398;29;20444;-65
2022/03/30 09:56:04;;;;;;;30.10;17.10;;;;;;;21.45;28.90;94442.56;4931759;29;20982;-61
2022/03/30 09:58:34;;;;;;;35.20;17.13;;;;;;;22.04;28.09;94448.97;4931191;29;20216;-56
2022/03/30 10:01:05;;;;;;;29.03;15.60;;;;;;;22.35;27.87;94446.44;4931536;29;20535;-63
2022/03/30 10:03:51;;;;;;;30.80;16.23;;;;;;;22.16;27.83;94440.94;4915647;29;20185;-65
2022/03/30 10:06:24;;;;;;;30.00;16.67;;;;;;;22.39;27.90;94433.94;4931470;29;20544;-62
2022/03/30 10:08:51;;;;;;;27.33;15.80;;;;;;;22.27;26.83;94420.66;4932447;29;20220;-61
2022/03/30 10:11:21;;;;;;;27.43;13.90;;;;;;;22.37;26.50;94408.72;4933810;29;20367;-55
2022/03/30 10:13:55;;;;;;;32.20;14.63;;;;;;;21.86;26.13;94381.00;4932819;29;20283;-64
2022/03/30 10:16:40;;;;;;;28.00;13.13;;;;;;;21.77;26.34;94404.34;4932610;29;20200;-65
2022/03/30 10:19:08;;;;;;;33.67;12.53;;;;;;;22.24;26.15;94400.00;4931361;29;20253;-58
2022/03/30 10:21:58;;;;;;;25.33;12.87;;;;;;;22.49;26.45;94396.09;4931871;29;20227;-63
2022/03/30 10:25:01;;;;;;;33.43;12.30;;;;;;;22.66;25.97;94389.69;4931485;29;20244;-66
2022/03/30 10:27:56;;;;;;;24.80;11.97;;;;;;;22.07;24.80;94385.03;4931732;29;20254;-62
2022/03/30 10:30:29;;;;;;;25.70;12.27;;;;;;;22.12;25.92;94386.69;4931414;29;20208;-62
2022/03/30 10:32:59;;;;;;;36.63;12.17;;;;;;;22.63;25.56;94379.66;4931586;29;20578;-60
2022/03/30 10:35:47;;;;;;;27.50;12.20;;;;;;;22.70;25.35;94375.28;4930988;29;20204;-61
2022/03/30 10:38:16;;;;;;;24.33;10.17;;;;;;;23.34;24.25;94361.59;4931452;29;20661;-64
2022/03/30 10:40:44;;;;;;;23.03;10.53;;;;;;;23.35;23.16;94363.16;4931284;29;20193;-61
2022/03/30 10:43:13;;;;;;;28.03;10.03;;;;;;;22.74;22.94;94349.44;4931742;29;20200;-64
2022/03/30 10:45:50;;;;;;;21.63;10.50;;;;;;;23.20;22.92;94350.53;4931039;29;20243;-66
2022/03/30 10:48:30;;;;;;;26.67;11.30;;;;;;;23.25;22.91;94362.88;4931452;29;20245;-65
2022/03/30 10:50:59;;;;;;;22.93;10.87;;;;;;;23.40;23.25;94356.75;4931197;29;20203;-62
2022/03/30 10:53:34;;;;;;;26.07;10.63;;;;;;;23.66;23.33;94356.94;4931705;29;20181;-61
2022/03/30 10:56:08;;;;;;;22.07;9.00;;;;;;;23.84;22.71;94355.41;4913947;29;20200;-65
2022/03/30 10:58:37;;;;;;;22.00;8.90;;;;;;;23.96;22.17;94350.69;4931151;29;20233;-60
2022/03/30 11:01:18;;;;;;;29.43;8.80;;;;;;;23.19;21.95;94348.22;4931514;29;20320;-56
2022/03/30 11:04:02;;;;;;;20.73;8.87;;;;;;;23.17;21.69;94350.47;4931512;29;20196;-67
2022/03/30 11:06:34;;;;;;;20.17;8.90;;;;;;;23.49;21.88;94336.72;4931096;29;20263;-62
2022/03/30 11:09:02;;;;;;;16.40;8.40;;;;;;;23.83;22.54;94340.50;4932409;29;20232;-65
2022/03/30 11:11:39;;;;;;;14.87;8.50;;;;;;;23.20;21.62;94339.84;4934928;29;20204;-65
2022/03/30 11:14:29;;;;;;;21.50;8.37;;;;;;;22.94;21.89;94336.94;4934695;29;20710;-63
2022/03/30 11:17:00;;;;;;;21.60;8.90;;;;;;;23.79;22.06;94335.06;4935110;29;20583;-60
2022/03/30 11:19:54;;;;;;;21.03;8.27;;;;;;;23.95;22.00;94326.97;4934458;29;20232;-64
2022/03/30 11:22:28;;;;;;;23.47;7.13;;;;;;;24.09;21.72;94327.28;4934676;29;20574;-61
2022/03/30 11:25:18;;;;;;;26.90;8.17;;;;;;;24.22;21.50;94317.97;4934840;29;20215;-65
2022/03/30 11:27:57;;;;;;;16.50;7.23;;;;;;;24.29;21.62;94317.34;4934424;29;20263;-64
2022/03/30 11:30:28;;;;;;;18.67;8.43;;;;;;;23.59;20.63;94308.66;4934493;29;20653;-59
2022/03/30 11:33:06;;;;;;;20.50;7.57;;;;;;;23.74;20.98;94311.25;4934389;29;20197;-58
2022/03/30 11:35:39;;;;;;;20.33;7.37;;;;;;;23.43;20.52;94291.91;4934110;29;20216;-57